Time;durP1;ratioP1;P1;durP2;ratioP2;P2;SDS_P1;SDS_P2;PMS_P1;PMS_P2;Temp;Humidity;BMP_temperature;BMP_pressure;BME280_temperature;BME280_humidity;BME280_pressure;Samples;Min_cycle;Max_cycle;Signal;HPM_P1;HPM_P2
2023/04/14 00:00:08;;;;;;;2.97;1.80;;;19.00;58.50;;;;;;5040959;28;20516;-53
2023/04/14 00:02:34;;;;;;;3.63;2.00;;;19.00;58.60;;;;;;5039049;28;20033;-54
2023/04/14 00:05:00;;;;;;;2.75;1.50;;;18.90;58.50;;;;;;5042477;28;20036;-50
2023/04/14 00:07:25;;;;;;;3.75;1.80;;;18.90;58.50;;;;;;5039306;28;20025;-51
2023/04/14 00:09:51;;;;;;;3.45;1.60;;;18.90;58.50;;;;;;5034376;28;20490;-48
2023/04/14 00:12:16;;;;;;;2.78;1.52;;;19.00;58.60;;;;;;5038928;28;20029;-52
2023/04/14 00:14:42;;;;;;;4.65;1.70;;;19.00;58.60;;;;;;5035639;28;20049;-49
2023/04/14 00:17:08;;;;;;;3.53;2.03;;;18.90;58.50;;;;;;5035899;28;20029;-50
2023/04/14 00:19:34;;;;;;;3.55;1.33;;;19.00;58.60;;;;;;5035759;28;20112;-49
2023/04/14 00:21:59;;;;;;;2.63;1.38;;;18.90;58.50;;;;;;5031011;28;20478;-48
2023/04/14 00:24:25;;;;;;;3.92;1.75;;;18.90;58.60;;;;;;5042124;28;20036;-47
2023/04/14 00:26:50;;;;;;;4.60;1.55;;;18.90;58.60;;;;;;5038064;28;20034;-49
2023/04/14 00:29:16;;;;;;;2.42;1.33;;;18.90;58.60;;;;;;5038408;28;20037;-48
2023/04/14 00:31:41;;;;;;;4.85;1.75;;;18.90;58.60;;;;;;5036074;28;20392;-52
2023/04/14 00:34:07;;;;;;;2.85;1.65;;;18.90;58.60;;;;;;5046464;28;20044;-50
2023/04/14 00:36:32;;;;;;;2.85;1.38;;;18.90;58.50;;;;;;5043040;28;20033;-47
2023/04/14 00:38:59;;;;;;;2.65;1.30;;;18.90;58.50;;;;;;5042133;28;20098;-50
2023/04/14 00:41:25;;;;;;;2.55;1.50;;;18.90;58.40;;;;;;5040829;28;20036;-51
2023/04/14 00:43:54;;;;;;;2.13;1.08;;;18.90;58.50;;;;;;5039288;28;20063;-51
2023/04/14 00:46:20;;;;;;;4.65;1.88;;;18.90;59.10;;;;;;5037628;28;20025;-50
2023/04/14 00:48:46;;;;;;;2.40;1.50;;;18.90;58.40;;;;;;5039993;28;20089;-50
2023/04/14 00:51:12;;;;;;;2.92;1.13;;;18.90;58.40;;;;;;5037401;28;20022;-58
2023/04/14 00:53:38;;;;;;;3.67;1.15;;;18.90;58.30;;;;;;5045530;28;20036;-48
2023/04/14 00:56:04;;;;;;;3.28;1.48;;;19.00;58.30;;;;;;5043766;28;20482;-48
2023/04/14 00:58:30;;;;;;;2.15;1.17;;;19.00;58.20;;;;;;5046954;28;20093;-48
2023/04/14 01:00:57;;;;;;;4.07;1.73;;;19.00;58.10;;;;;;5042020;28;20446;-50
2023/04/14 01:03:23;;;;;;;1.48;1.20;;;19.00;58.10;;;;;;5041444;28;20333;-51
2023/04/14 01:05:49;;;;;;;3.53;1.58;;;19.10;57.90;;;;;;5042977;28;20044;-50
2023/04/14 01:08:15;;;;;;;2.65;1.60;;;19.20;57.60;;;;;;5041030;28;20025;-50
2023/04/14 01:10:49;;;;;;;2.45;1.42;;;19.30;57.30;;;;;;5040470;28;20025;-51
2023/04/14 01:13:21;;;;;;;1.63;1.08;;;19.40;57.00;;;;;;5035912;28;20079;-49
2023/04/14 01:15:56;;;;;;;2.42;1.10;;;19.50;56.60;;;;;;5037201;28;20040;-51
2023/04/14 01:18:45;;;;;;;2.10;1.00;;;19.60;56.50;;;;;;5037615;28;20029;-50
2023/04/14 01:21:16;;;;;;;1.45;1.00;;;19.70;56.30;;;;;;5042439;28;20478;-49
2023/04/14 01:24:03;;;;;;;3.42;1.20;;;19.80;56.10;;;;;;5046079;28;20497;-48
2023/04/14 01:26:30;;;;;;;2.28;1.08;;;19.80;56.00;;;;;;5058443;28;20530;-51
2023/04/14 01:29:01;;;;;;;2.10;1.15;;;19.90;56.00;;;;;;5041110;28;20394;-48
2023/04/14 01:31:46;;;;;;;1.77;1.20;;;19.90;55.90;;;;;;5037732;28;20035;-50
2023/04/14 01:34:18;;;;;;;2.45;1.15;;;20.00;55.60;;;;;;5045073;28;20537;-53
2023/04/14 01:36:56;;;;;;;1.88;0.93;;;20.10;55.60;;;;;;5041781;28;20029;-51
2023/04/14 01:39:26;;;;;;;2.65;1.20;;;20.10;56.10;;;;;;5033926;28;20143;-49
2023/04/14 01:41:55;;;;;;;2.83;1.10;;;20.10;55.40;;;;;;5036103;28;20095;-52
2023/04/14 01:44:24;;;;;;;0.95;0.80;;;20.10;55.50;;;;;;5035586;28;20029;-49
2023/04/14 01:46:55;;;;;;;2.20;1.17;;;20.10;55.50;;;;;;5037887;28;20034;-51
2023/04/14 01:49:21;;;;;;;2.35;1.05;;;20.10;55.40;;;;;;5034400;28;20466;-51
2023/04/14 01:51:47;;;;;;;1.90;1.08;;;20.10;55.60;;;;;;5041258;28;20052;-50
2023/04/14 01:54:16;;;;;;;2.05;1.00;;;20.10;55.60;;;;;;5042646;28;20025;-53
2023/04/14 01:56:42;;;;;;;3.17;0.90;;;20.10;55.70;;;;;;5040361;28;20033;-49
2023/04/14 01:59:10;;;;;;;2.00;0.90;;;20.00;55.70;;;;;;5045687;28;20120;-51
2023/04/14 02:01:37;;;;;;;1.55;0.80;;;20.00;55.80;;;;;;5043869;28;20095;-49
2023/04/14 02:04:03;;;;;;;1.58;0.80;;;20.00;55.80;;;;;;5040585;28;20510;-48
2023/04/14 02:06:31;;;;;;;1.27;1.10;;;19.90;55.90;;;;;;5040001;28;20033;-51
2023/04/14 02:09:00;;;;;;;1.48;0.82;;;19.90;55.90;;;;;;5036676;28;20155;-49
2023/04/14 02:11:28;;;;;;;7.13;1.45;;;19.90;55.90;;;;;;5036958;28;20036;-50
2023/04/14 02:13:55;;;;;;;1.95;0.77;;;19.90;56.00;;;;;;5034464;28;20444;-52
2023/04/14 02:16:23;;;;;;;3.05;1.00;;;19.80;56.00;;;;;;5039209;28;20035;-50
2023/04/14 02:18:49;;;;;;;2.55;1.05;;;19.80;56.00;;;;;;5030921;28;20041;-50
2023/04/14 02:21:15;;;;;;;1.83;1.02;;;19.80;56.20;;;;;;5045977;28;20033;-48
2023/04/14 02:23:41;;;;;;;1.33;0.82;;;19.80;56.30;;;;;;5041867;28;20029;-50
2023/04/14 02:26:14;;;;;;;1.10;0.73;;;19.70;56.20;;;;;;5040811;28;20036;-48
2023/04/14 02:28:56;;;;;;;1.13;0.93;;;19.70;56.30;;;;;;5040769;28;20135;-49
2023/04/14 02:31:24;;;;;;;1.35;0.82;;;19.70;56.40;;;;;;5038914;28;20402;-51
2023/04/14 02:33:55;;;;;;;0.88;0.82;;;19.60;56.30;;;;;;5041096;28;20033;-50
2023/04/14 02:36:27;;;;;;;1.83;0.90;;;19.60;56.30;;;;;;5040354;28;20025;-48
2023/04/14 02:39:05;;;;;;;2.13;0.93;;;19.60;56.30;;;;;;5038693;28;20451;-49
2023/04/14 02:41:32;;;;;;;1.85;0.90;;;19.60;56.40;;;;;;5036806;28;20393;-50
2023/04/14 02:44:09;;;;;;;1.83;0.80;;;19.60;56.40;;;;;;5036246;28;20029;-51
2023/04/14 02:46:41;;;;;;;0.95;0.80;;;19.50;56.30;;;;;;5035199;28;20082;-50
2023/04/14 02:49:12;;;;;;;1.65;0.98;;;19.50;56.50;;;;;;5035653;28;20032;-49
2023/04/14 02:51:39;;;;;;;1.10;0.98;;;19.50;56.50;;;;;;5042633;28;20086;-48
2023/04/14 02:54:05;;;;;;;1.17;0.98;;;19.50;56.50;;;;;;5040086;28;20021;-48
2023/04/14 02:56:31;;;;;;;1.48;1.08;;;19.40;56.40;;;;;;5039239;28;20052;-50
2023/04/14 02:58:58;;;;;;;1.55;0.90;;;19.40;56.40;;;;;;5044338;28;20415;-49
2023/04/14 03:01:24;;;;;;;1.35;1.10;;;19.40;56.40;;;;;;5042313;28;20032;-51
2023/04/14 03:03:52;;;;;;;2.97;0.85;;;19.40;56.40;;;;;;5038630;28;20037;-49
2023/04/14 03:06:17;;;;;;;1.50;0.80;;;19.40;56.50;;;;;;5038095;28;20039;-49
2023/04/14 03:08:44;;;;;;;1.58;0.98;;;19.30;56.50;;;;;;5035375;28;20068;-49
2023/04/14 03:11:12;;;;;;;1.55;0.90;;;19.30;56.50;;;;;;5033684;28;20498;-49
2023/04/14 03:13:39;;;;;;;1.35;0.88;;;19.30;56.50;;;;;;5038225;28;20033;-49
2023/04/14 03:16:05;;;;;;;1.42;1.00;;;19.30;56.50;;;;;;5037754;28;20504;-49
2023/04/14 03:18:31;;;;;;;1.63;0.82;;;19.20;56.50;;;;;;5034822;28;20448;-52
2023/04/14 03:21:00;;;;;;;1.15;0.88;;;19.20;56.60;;;;;;5041053;28;20037;-51
2023/04/14 03:23:27;;;;;;;2.03;1.00;;;19.20;56.60;;;;;;5041766;28;20120;-46
2023/04/14 03:25:54;;;;;;;2.60;0.90;;;19.20;56.60;;;;;;5039573;28;20029;-54
2023/04/14 03:28:23;;;;;;;1.00;0.75;;;19.20;56.70;;;;;;5044331;28;20349;-53
2023/04/14 03:30:52;;;;;;;1.55;0.90;;;19.20;56.80;;;;;;5042062;28;20036;-49
2023/04/14 03:33:23;;;;;;;2.17;0.90;;;19.20;56.80;;;;;;5036456;28;20029;-49
2023/04/14 03:35:51;;;;;;;1.38;0.93;;;19.20;56.80;;;;;;5036935;28;20033;-48
2023/04/14 03:38:19;;;;;;;0.73;0.68;;;19.10;56.80;;;;;;5034270;28;20029;-50
2023/04/14 03:40:46;;;;;;;1.67;1.10;;;19.10;56.80;;;;;;5033402;28;20045;-47
2023/04/14 03:43:18;;;;;;;3.78;0.90;;;19.10;56.90;;;;;;5036898;28;20502;-49
2023/04/14 03:45:46;;;;;;;1.00;0.80;;;19.10;56.90;;;;;;5031079;28;20033;-52
2023/04/14 03:48:13;;;;;;;1.67;0.90;;;19.10;56.90;;;;;;5038956;28;20033;-51
2023/04/14 03:50:41;;;;;;;2.80;0.77;;;19.10;57.00;;;;;;5042789;28;20032;-52
2023/04/14 03:53:11;;;;;;;3.15;1.00;;;19.00;56.90;;;;;;5040698;28;20033;-49
2023/04/14 03:55:37;;;;;;;1.48;1.00;;;19.10;57.00;;;;;;5042211;28;20029;-48
2023/04/14 03:58:05;;;;;;;1.50;0.90;;;19.00;57.00;;;;;;5040336;28;20032;-48
2023/04/14 04:00:31;;;;;;;1.15;0.90;;;19.00;57.00;;;;;;5042778;28;20028;-53
2023/04/14 04:02:57;;;;;;;1.60;0.90;;;19.00;57.00;;;;;;5038659;28;20045;-48
2023/04/14 04:05:23;;;;;;;2.20;0.80;;;19.00;57.00;;;;;;5034807;28;20044;-49
2023/04/14 04:07:50;;;;;;;0.70;0.70;;;19.00;57.10;;;;;;5030946;28;20094;-49
2023/04/14 04:10:18;;;;;;;1.45;1.00;;;19.00;57.00;;;;;;5033144;28;20036;-47
2023/04/14 04:12:46;;;;;;;1.25;0.90;;;19.00;57.00;;;;;;5036484;28;20361;-46
2023/04/14 04:15:12;;;;;;;1.38;0.90;;;19.00;57.10;;;;;;5035819;28;20292;-49
2023/04/14 04:17:38;;;;;;;2.55;1.02;;;19.00;56.90;;;;;;5038486;28;20056;-49
2023/04/14 04:20:07;;;;;;;1.30;1.08;;;19.00;57.00;;;;;;5039948;28;20061;-48
2023/04/14 04:22:36;;;;;;;1.08;0.77;;;19.00;57.00;;;;;;5035056;28;20395;-49
2023/04/14 04:25:03;;;;;;;1.08;0.70;;;19.00;57.00;;;;;;5037798;28;20516;-50
2023/04/14 04:27:29;;;;;;;1.73;0.90;;;19.00;57.00;;;;;;5045579;28;20032;-51
2023/04/14 04:29:54;;;;;;;1.67;0.90;;;19.10;56.80;;;;;;5041236;28;20036;-48
2023/04/14 04:32:20;;;;;;;4.75;1.00;;;19.20;56.50;;;;;;5038623;28;20037;-47
2023/04/14 04:34:49;;;;;;;2.47;0.95;;;19.30;56.20;;;;;;5034799;28;20039;-48
2023/04/14 04:37:15;;;;;;;2.30;0.90;;;19.40;55.90;;;;;;5034205;28;20389;-49
2023/04/14 04:39:41;;;;;;;1.30;0.82;;;19.60;55.70;;;;;;5032425;28;20116;-49
2023/04/14 04:42:07;;;;;;;2.17;1.10;;;19.60;55.60;;;;;;5036222;28;20195;-49
2023/04/14 04:44:33;;;;;;;1.20;0.80;;;19.70;55.30;;;;;;5031920;28;20040;-52
2023/04/14 04:47:00;;;;;;;1.55;1.10;;;19.70;55.10;;;;;;5029373;28;21020;-50
2023/04/14 04:49:25;;;;;;;1.27;0.90;;;19.80;55.10;;;;;;5036216;28;20069;-52
2023/04/14 04:51:51;;;;;;;1.85;1.05;;;19.90;55.00;;;;;;5047073;28;20055;-51
2023/04/14 04:54:17;;;;;;;1.52;0.80;;;19.90;54.90;;;;;;5034229;28;20482;-50
2023/04/14 04:56:43;;;;;;;1.50;1.08;;;20.00;54.70;;;;;;5034490;28;20102;-50
2023/04/14 04:59:09;;;;;;;1.08;0.82;;;20.00;54.70;;;;;;5033307;28;20127;-48
2023/04/14 05:01:35;;;;;;;2.38;0.90;;;20.00;54.70;;;;;;5034362;28;20030;-50
2023/04/14 05:04:01;;;;;;;1.13;0.65;;;20.10;54.70;;;;;;5030833;28;20036;-51
2023/04/14 05:06:27;;;;;;;2.35;0.90;;;20.10;54.70;;;;;;5031392;28;20034;-48
2023/04/14 05:08:55;;;;;;;2.85;0.98;;;20.10;54.70;;;;;;5032348;28;20502;-49
2023/04/14 05:11:21;;;;;;;2.42;0.82;;;20.00;54.70;;;;;;5035849;28;20553;-51
2023/04/14 05:13:47;;;;;;;2.53;0.90;;;20.10;54.90;;;;;;5037871;28;20044;-50
2023/04/14 05:16:13;;;;;;;1.73;1.08;;;20.00;54.90;;;;;;5037817;28;20505;-50
2023/04/14 05:18:40;;;;;;;1.80;0.80;;;20.00;55.10;;;;;;5032570;28;20112;-49
2023/04/14 05:21:11;;;;;;;2.15;1.17;;;20.00;55.00;;;;;;5036952;28;20317;-52
2023/04/14 05:23:38;;;;;;;3.33;1.05;;;20.00;55.30;;;;;;5039257;28;20113;-49
2023/04/14 05:26:05;;;;;;;4.85;1.30;;;19.90;55.30;;;;;;5037466;28;20037;-49
2023/04/14 05:28:30;;;;;;;5.75;2.33;;;19.90;55.40;;;;;;5038350;28;20140;-50
2023/04/14 05:30:56;;;;;;;8.18;2.60;;;19.90;55.50;;;;;;5036252;28;20124;-48
2023/04/14 05:33:21;;;;;;;4.18;2.92;;;19.80;55.60;;;;;;5038466;28;20041;-51
2023/04/14 05:35:49;;;;;;;7.00;3.28;;;19.70;55.70;;;;;;5034711;28;20393;-48
2023/04/14 05:38:15;;;;;;;5.07;3.22;;;19.70;55.70;;;;;;5037898;28;20102;-54
2023/04/14 05:40:41;;;;;;;6.10;3.05;;;19.70;55.90;;;;;;5037990;28;20037;-50
2023/04/14 05:43:06;;;;;;;10.10;3.42;;;19.70;55.90;;;;;;5036447;28;20482;-48
2023/04/14 05:45:32;;;;;;;4.90;3.22;;;19.70;56.00;;;;;;5038663;28;20036;-49
2023/04/14 05:47:57;;;;;;;8.15;3.05;;;19.60;55.90;;;;;;5034499;28;20086;-49
2023/04/14 05:50:23;;;;;;;6.00;3.55;;;19.60;56.00;;;;;;5041733;28;20090;-51
2023/04/14 05:52:50;;;;;;;9.65;3.95;;;19.60;56.10;;;;;;5039010;28;20086;-47
2023/04/14 05:55:15;;;;;;;5.78;3.47;;;19.60;56.20;;;;;;5039318;28;20471;-54
2023/04/14 05:57:41;;;;;;;5.72;3.55;;;19.50;56.10;;;;;;5037725;28;20044;-53
2023/04/14 06:00:07;;;;;;;5.95;3.17;;;19.50;56.30;;;;;;5036533;28;20108;-50
2023/04/14 06:02:33;;;;;;;6.57;3.42;;;19.50;56.30;;;;;;5036282;28;20093;-50
2023/04/14 06:04:58;;;;;;;5.80;2.72;;;19.40;56.20;;;;;;5032048;28;20053;-47
2023/04/14 06:07:24;;;;;;;4.65;3.03;;;19.40;56.30;;;;;;5036169;28;20115;-51
2023/04/14 06:09:50;;;;;;;8.93;3.50;;;19.40;56.30;;;;;;5034984;28;20051;-50
2023/04/14 06:12:15;;;;;;;7.10;3.35;;;19.40;56.30;;;;;;5036893;28;20045;-51
2023/04/14 06:14:41;;;;;;;3.00;2.42;;;19.40;56.30;;;;;;5038965;28;20033;-48
2023/04/14 06:17:06;;;;;;;4.18;2.70;;;19.40;56.60;;;;;;5037153;28;20059;-50
2023/04/14 06:19:32;;;;;;;6.75;2.85;;;19.30;56.70;;;;;;5039501;28;20060;-50
2023/04/14 06:21:57;;;;;;;4.20;2.67;;;19.40;57.20;;;;;;5041931;28;20029;-49
2023/04/14 06:24:23;;;;;;;4.65;2.20;;;19.30;57.20;;;;;;5041380;28;20021;-50
2023/04/14 06:26:48;;;;;;;5.43;2.53;;;19.30;57.30;;;;;;5039796;28;20029;-48
2023/04/14 06:29:14;;;;;;;4.63;2.30;;;19.20;57.30;;;;;;5038441;28;20120;-53
2023/04/14 06:31:39;;;;;;;3.05;1.70;;;19.20;57.50;;;;;;5035656;28;20033;-51
2023/04/14 06:34:05;;;;;;;5.85;2.10;;;19.20;57.60;;;;;;5037596;28;20032;-51
2023/04/14 06:36:31;;;;;;;5.50;2.08;;;19.20;57.50;;;;;;5038387;28;20478;-50
2023/04/14 06:38:57;;;;;;;3.42;2.10;;;19.20;57.60;;;;;;5037349;28;20049;-47
2023/04/14 06:41:23;;;;;;;2.42;1.73;;;19.10;57.60;;;;;;5039035;28;20541;-49
2023/04/14 06:43:48;;;;;;;3.50;1.75;;;19.10;57.70;;;;;;5039878;28;20057;-51
2023/04/14 06:46:14;;;;;;;5.72;2.33;;;19.10;57.60;;;;;;5041250;28;20032;-49
2023/04/14 06:48:39;;;;;;;4.63;1.90;;;19.10;57.50;;;;;;5038782;28;20441;-51
2023/04/14 06:51:06;;;;;;;7.75;2.28;;;19.10;57.40;;;;;;5041371;28;20025;-51
2023/04/14 06:53:32;;;;;;;7.07;1.85;;;19.10;57.30;;;;;;5038809;28;20018;-50
2023/04/14 06:56:00;;;;;;;3.33;2.05;;;19.10;57.50;;;;;;5039650;28;20082;-51
2023/04/14 06:58:29;;;;;;;4.78;2.05;;;19.10;57.70;;;;;;5036118;28;20501;-50
2023/04/14 07:00:59;;;;;;;4.38;2.17;;;19.10;57.80;;;;;;5035926;28;20098;-48
2023/04/14 07:03:25;;;;;;;5.95;1.92;;;19.10;57.80;;;;;;5057155;28;20111;-50
2023/04/14 07:05:52;;;;;;;17.35;7.88;;;19.10;57.90;;;;;;5037453;28;20751;-51
2023/04/14 07:08:18;;;;;;;18.52;9.73;;;19.10;58.50;;;;;;5048715;28;20052;-50
2023/04/14 07:10:44;;;;;;;23.63;8.95;;;19.10;58.90;;;;;;5035658;28;20036;-48
2023/04/14 07:13:10;;;;;;;18.98;8.10;;;19.10;58.90;;;;;;5034783;28;20049;-49
2023/04/14 07:15:35;;;;;;;21.95;8.75;;;19.10;58.70;;;;;;5039922;28;20029;-50
2023/04/14 07:18:01;;;;;;;23.60;8.80;;;19.20;58.80;;;;;;5038364;28;20152;-47
2023/04/14 07:20:27;;;;;;;17.13;7.75;;;19.10;58.60;;;;;;5037851;28;20048;-52
2023/04/14 07:22:54;;;;;;;17.08;7.75;;;19.10;58.60;;;;;;5034612;28;20701;-50
2023/04/14 07:25:20;;;;;;;19.35;6.85;;;19.10;58.70;;;;;;5035637;28;20432;-51
2023/04/14 07:27:46;;;;;;;15.80;7.15;;;19.10;58.70;;;;;;5034597;28;20033;-49
2023/04/14 07:30:11;;;;;;;16.52;7.60;;;19.10;58.60;;;;;;5035201;28;20482;-47
2023/04/14 07:32:37;;;;;;;16.48;7.32;;;19.10;58.70;;;;;;5034547;28;20032;-47
2023/04/14 07:35:04;;;;;;;17.52;7.28;;;19.10;58.70;;;;;;5037395;28;20061;-50
2023/04/14 07:37:31;;;;;;;18.15;7.10;;;19.00;58.70;;;;;;5036350;28;20029;-50
2023/04/14 07:39:57;;;;;;;15.77;7.00;;;19.10;58.70;;;;;;5038389;28;20025;-48
2023/04/14 07:42:23;;;;;;;18.38;6.57;;;19.00;58.70;;;;;;5035725;28;20036;-51
2023/04/14 07:44:48;;;;;;;12.20;5.50;;;19.00;58.70;;;;;;5036142;28;20067;-47
2023/04/14 07:47:14;;;;;;;11.77;5.38;;;19.00;58.70;;;;;;5038890;28;20033;-49
2023/04/14 07:49:39;;;;;;;12.98;5.90;;;19.00;59.30;;;;;;5038973;28;20032;-49
2023/04/14 07:52:05;;;;;;;11.75;5.30;;;19.00;58.60;;;;;;5040725;28;20414;-49
2023/04/14 07:54:30;;;;;;;14.65;6.10;;;19.00;58.70;;;;;;5037140;28;20032;-51
2023/04/14 07:56:56;;;;;;;11.32;4.90;;;19.00;58.60;;;;;;5037448;28;20043;-51
2023/04/14 07:59:22;;;;;;;12.63;5.20;;;19.00;58.70;;;;;;5035863;28;20013;-49
2023/04/14 08:01:48;;;;;;;10.57;4.95;;;19.00;58.70;;;;;;5038179;28;20464;-50
2023/04/14 08:04:13;;;;;;;12.68;5.35;;;19.00;58.60;;;;;;5035422;28;20122;-48
2023/04/14 08:06:39;;;;;;;12.90;6.05;;;19.00;58.70;;;;;;5032406;28;20024;-49
2023/04/14 08:09:04;;;;;;;11.98;5.63;;;19.00;58.80;;;;;;5033716;28;20029;-47
2023/04/14 08:11:30;;;;;;;10.65;5.30;;;19.00;58.80;;;;;;5064931;28;20029;-49
2023/04/14 08:13:55;;;;;;;12.30;5.00;;;18.90;58.80;;;;;;5037496;28;20103;-49
2023/04/14 08:16:21;;;;;;;15.73;5.55;;;19.00;59.20;;;;;;5038145;28;20095;-49
2023/04/14 08:18:47;;;;;;;11.90;5.03;;;18.90;58.90;;;;;;5036291;28;20026;-50
2023/04/14 08:21:13;;;;;;;9.35;4.47;;;19.00;59.00;;;;;;5040461;28;20029;-50
2023/04/14 08:23:38;;;;;;;7.32;4.20;;;18.90;59.00;;;;;;5038430;28;20368;-50
2023/04/14 08:26:04;;;;;;;12.18;4.40;;;19.00;59.20;;;;;;5033230;28;20083;-50
2023/04/14 08:28:29;;;;;;;7.82;3.78;;;18.90;59.10;;;;;;5035454;28;20091;-51
2023/04/14 08:30:55;;;;;;;10.05;4.60;;;18.90;59.10;;;;;;5039849;28;20048;-50
2023/04/14 08:33:20;;;;;;;8.63;4.70;;;18.90;59.10;;;;;;5033358;28;20021;-48
2023/04/14 08:35:46;;;;;;;11.25;4.38;;;18.90;59.10;;;;;;5040862;28;20483;-48
2023/04/14 08:38:12;;;;;;;11.65;6.18;;;18.90;59.10;;;;;;5032580;28;20029;-51
2023/04/14 08:40:41;;;;;;;9.70;4.75;;;18.80;59.10;;;;;;5040080;28;20051;-50
2023/04/14 08:43:07;;;;;;;12.75;4.05;;;18.90;59.30;;;;;;5037337;28;20297;-47
2023/04/14 08:45:33;;;;;;;5.30;3.60;;;18.80;59.40;;;;;;5040293;28;20191;-48
2023/04/14 08:48:01;;;;;;;8.88;4.20;;;18.80;59.40;;;;;;5036407;28;20029;-49
2023/04/14 08:50:35;;;;;;;8.10;4.05;;;18.80;59.50;;;;;;5036935;28;20501;-49
2023/04/14 08:53:04;;;;;;;7.10;3.65;;;18.80;59.50;;;;;;5037265;28;20033;-49
2023/04/14 08:55:31;;;;;;;10.02;4.55;;;18.80;59.60;;;;;;5038919;28;20264;-51
2023/04/14 08:57:59;;;;;;;7.82;3.88;;;18.90;59.70;;;;;;5038773;28;20026;-48
2023/04/14 09:00:24;;;;;;;6.05;3.92;;;18.90;59.60;;;;;;5040418;28;20530;-50
2023/04/14 09:02:51;;;;;;;6.97;3.53;;;18.90;59.80;;;;;;5034297;28;20068;-51
2023/04/14 09:05:17;;;;;;;9.70;4.35;;;18.90;59.80;;;;;;5042694;28;20352;-48
2023/04/14 09:07:43;;;;;;;7.25;3.58;;;18.90;59.80;;;;;;5043011;28;20025;-51
2023/04/14 09:10:10;;;;;;;7.05;3.97;;;18.90;59.60;;;;;;5043784;28;20026;-48
2023/04/14 09:12:38;;;;;;;7.95;3.30;;;18.90;59.60;;;;;;5043010;28;20043;-51
2023/04/14 09:15:04;;;;;;;5.80;3.20;;;18.90;59.50;;;;;;5060170;28;20332;-50
2023/04/14 09:17:30;;;;;;;6.38;3.97;;;19.00;59.40;;;;;;5041040;28;20072;-51
2023/04/14 09:19:56;;;;;;;6.25;3.10;;;19.10;59.10;;;;;;5042943;28;20441;-48
2023/04/14 09:22:22;;;;;;;9.35;4.10;;;19.20;58.70;;;;;;5040908;28;20039;-50
2023/04/14 09:24:48;;;;;;;5.10;3.22;;;19.40;58.30;;;;;;5040296;28;20405;-57
2023/04/14 09:27:14;;;;;;;6.88;3.30;;;19.50;57.90;;;;;;5038932;28;20037;-53
2023/04/14 09:29:40;;;;;;;7.15;3.45;;;19.60;57.50;;;;;;5037898;28;20586;-48
2023/04/14 09:32:06;;;;;;;4.53;2.78;;;19.70;57.30;;;;;;5039127;28;20025;-49
2023/04/14 09:34:32;;;;;;;6.93;3.40;;;19.80;57.10;;;;;;5040094;28;20032;-51
2023/04/14 09:37:15;;;;;;;4.95;3.00;;;19.90;57.00;;;;;;5042538;28;20238;-47
2023/04/14 09:39:48;;;;;;;7.13;3.42;;;19.90;56.80;;;;;;5039669;28;20055;-51
2023/04/14 09:42:15;;;;;;;6.78;3.10;;;20.00;56.70;;;;;;5043228;28;20029;-50
2023/04/14 09:44:55;;;;;;;5.97;3.00;;;20.10;56.70;;;;;;5041315;28;20494;-48
2023/04/14 09:47:21;;;;;;;6.72;3.10;;;20.10;56.50;;;;;;5043316;28;20108;-49
2023/04/14 09:50:05;;;;;;;8.52;3.70;;;20.10;56.50;;;;;;5043151;28;20522;-48
2023/04/14 09:52:43;;;;;;;5.53;2.63;;;20.10;56.50;;;;;;5043699;28;20087;-51
2023/04/14 09:55:10;;;;;;;5.15;2.85;;;20.10;56.60;;;;;;5041503;28;20082;-51
2023/04/14 09:57:37;;;;;;;5.55;2.70;;;20.10;56.60;;;;;;5037061;28;20823;-51
2023/04/14 10:00:23;;;;;;;3.90;2.42;;;20.10;56.50;;;;;;5035526;28;20025;-50
2023/04/14 10:02:56;;;;;;;6.90;2.70;;;20.10;56.70;;;;;;5034223;28;20574;-51
2023/04/14 10:05:31;;;;;;;4.82;2.67;;;20.10;56.70;;;;;;5038277;28;20040;-49
2023/04/14 10:08:04;;;;;;;4.57;2.80;;;20.10;56.80;;;;;;5038747;28;20037;-49
2023/04/14 10:10:30;;;;;;;3.50;2.45;;;20.10;56.80;;;;;;5042539;28;20267;-50
2023/04/14 10:12:55;;;;;;;6.60;2.95;;;20.10;56.90;;;;;;5055148;22;20099;-63
2023/04/14 10:15:21;;;;;;;5.25;2.97;;;20.10;57.00;;;;;;5002137;28;20021;-64
2023/04/14 10:17:46;;;;;;;3.60;2.65;;;20.00;57.00;;;;;;5021986;28;20121;-64
2023/04/14 10:20:13;;;;;;;5.45;2.22;;;20.00;57.10;;;;;;5019405;28;20095;-65
2023/04/14 10:22:40;;;;;;;4.28;2.70;;;20.00;57.20;;;;;;5016218;28;20044;-64
2023/04/14 10:25:07;;;;;;;5.35;2.08;;;20.00;57.30;;;;;;5017002;28;20038;-64
2023/04/14 10:27:33;;;;;;;4.47;2.28;;;20.00;57.30;;;;;;5034356;28;20039;-64
2023/04/14 10:29:59;;;;;;;5.25;2.80;;;20.00;57.40;;;;;;5016497;28;20235;-63
2023/04/14 10:32:30;;;;;;;4.07;2.30;;;19.90;57.40;;;;;;5019929;28;20144;-63
2023/04/14 10:35:08;;;;;;;6.22;3.47;;;19.90;57.40;;;;;;5017826;28;20030;-63
2023/04/14 10:37:33;;;;;;;4.47;2.35;;;19.90;57.50;;;;;;5053359;28;20393;-62
2023/04/14 10:40:03;;;;;;;3.88;2.30;;;19.90;57.50;;;;;;5023431;28;20037;-63
2023/04/14 10:42:31;;;;;;;7.53;2.60;;;19.90;57.70;;;;;;5021792;28;20472;-63
2023/04/14 10:45:04;;;;;;;3.75;2.25;;;19.80;57.70;;;;;;5021652;28;20672;-63
2023/04/14 10:47:30;;;;;;;3.78;2.03;;;19.80;57.80;;;;;;5020251;28;20033;-63
2023/04/14 10:49:57;;;;;;;2.85;1.90;;;19.80;57.90;;;;;;5017935;28;20061;-63
2023/04/14 10:52:24;;;;;;;3.38;2.05;;;19.80;58.00;;;;;;5018386;28;20105;-63
2023/04/14 10:54:59;;;;;;;3.45;2.15;;;19.70;58.00;;;;;;5013504;28;20184;-63
2023/04/14 10:57:27;;;;;;;5.88;2.25;;;19.70;58.10;;;;;;5015175;28;20492;-63
2023/04/14 10:59:57;;;;;;;3.00;2.15;;;19.70;58.20;;;;;;5016699;28;20385;-63
2023/04/14 11:02:33;;;;;;;5.47;2.33;;;19.70;58.30;;;;;;5016088;28;20179;-63
2023/04/14 11:05:10;;;;;;;6.32;2.00;;;19.60;58.30;;;;;;5028210;28;20091;-63
2023/04/14 11:07:46;;;;;;;2.85;1.90;;;19.60;58.40;;;;;;5024924;28;20650;-63
2023/04/14 11:10:23;;;;;;;4.25;2.10;;;19.60;58.50;;;;;;5019783;28;20034;-63
2023/04/14 11:12:54;;;;;;;3.03;1.80;;;19.50;58.50;;;;;;5017675;28;20512;-63
2023/04/14 11:15:19;;;;;;;3.85;1.98;;;19.50;58.60;;;;;;5019133;28;20034;-63
2023/04/14 11:17:45;;;;;;;3.50;1.92;;;19.50;58.60;;;;;;5015225;28;20578;-63
2023/04/14 11:20:19;;;;;;;2.97;2.05;;;19.50;58.70;;;;;;5018102;28;20064;-63
2023/04/14 11:22:46;;;;;;;2.97;2.22;;;19.50;58.70;;;;;;5016816;28;20550;-63
2023/04/14 11:25:14;;;;;;;2.88;1.70;;;19.50;58.70;;;;;;5011640;28;20029;-63
2023/04/14 11:27:40;;;;;;;2.97;2.20;;;19.50;58.80;;;;;;5017135;28;20496;-62
2023/04/14 11:30:16;;;;;;;3.95;2.10;;;19.40;58.90;;;;;;5010268;28;20121;-63
2023/04/14 11:32:49;;;;;;;3.08;1.90;;;19.40;58.90;;;;;;5022018;28;20038;-63
2023/04/14 11:35:16;;;;;;;3.00;2.25;;;19.40;59.00;;;;;;5054255;28;20030;-63
2023/04/14 11:37:42;;;;;;;3.60;1.50;;;19.40;59.10;;;;;;5019576;28;20026;-63
2023/04/14 11:40:12;;;;;;;3.58;2.13;;;19.40;59.10;;;;;;5020389;28;20448;-62
2023/04/14 11:42:45;;;;;;;3.35;1.60;;;19.40;59.30;;;;;;5020378;28;20042;-63
2023/04/14 11:45:14;;;;;;;2.33;1.40;;;19.40;60.00;;;;;;5018334;28;20029;-62
2023/04/14 11:47:45;;;;;;;4.25;1.65;;;19.40;59.40;;;;;;5015670;28;20483;-63
2023/04/14 11:50:10;;;;;;;3.63;1.30;;;19.40;59.40;;;;;;5017788;28;20029;-63
2023/04/14 11:52:36;;;;;;;5.00;1.95;;;19.40;59.50;;;;;;5016362;28;20034;-63
2023/04/14 11:55:02;;;;;;;2.72;1.50;;;19.40;59.50;;;;;;5013997;28;20037;-63
2023/04/14 11:57:28;;;;;;;1.60;1.30;;;19.40;59.50;;;;;;5013557;28;20109;-63
2023/04/14 11:59:55;;;;;;;3.90;1.88;;;19.40;59.70;;;;;;5015400;28;20345;-63
2023/04/14 12:02:21;;;;;;;2.78;1.63;;;19.30;59.70;;;;;;5022133;28;20116;-62
2023/04/14 12:04:49;;;;;;;3.25;1.67;;;19.30;59.90;;;;;;5018568;28;20631;-62
2023/04/14 12:07:18;;;;;;;1.95;1.58;;;19.30;59.80;;;;;;5017638;28;20029;-63
2023/04/14 12:09:46;;;;;;;2.65;1.38;;;19.30;59.90;;;;;;5018820;28;20438;-63
2023/04/14 12:12:13;;;;;;;2.25;1.48;;;19.30;59.90;;;;;;5052375;28;20045;-63
2023/04/14 12:14:47;;;;;;;2.05;1.35;;;19.30;59.90;;;;;;5019238;28;20087;-63
2023/04/14 12:17:16;;;;;;;3.38;1.38;;;19.30;59.90;;;;;;5017000;28;20041;-62
2023/04/14 12:19:43;;;;;;;2.78;1.25;;;19.30;60.00;;;;;;5013560;28;20443;-63
2023/04/14 12:22:09;;;;;;;2.00;1.40;;;19.30;60.10;;;;;;5013024;28;20045;-64
2023/04/14 12:24:39;;;;;;;2.90;1.50;;;19.30;60.10;;;;;;5015569;28;20037;-64
2023/04/14 12:27:06;;;;;;;3.13;1.48;;;19.30;60.20;;;;;;5018665;28;20087;-64
2023/04/14 12:29:38;;;;;;;1.98;1.23;;;19.30;60.20;;;;;;5017737;28;20083;-63
2023/04/14 12:32:10;;;;;;;2.17;1.45;;;19.30;60.20;;;;;;5015303;28;20042;-64
2023/04/14 12:34:36;;;;;;;1.65;1.20;;;19.30;60.30;;;;;;5018533;28;20026;-63
2023/04/14 12:37:07;;;;;;;2.55;1.35;;;19.30;60.40;;;;;;5017897;28;20029;-63
2023/04/14 12:39:51;;;;;;;1.77;1.08;;;19.30;60.30;;;;;;5019568;28;20029;-64
2023/04/14 12:42:17;;;;;;;1.45;1.00;;;19.30;60.50;;;;;;5018815;28;20040;-63
2023/04/14 12:44:56;;;;;;;3.63;1.55;;;19.30;60.30;;;;;;5018498;28;20390;-63
2023/04/14 12:47:33;;;;;;;2.70;1.33;;;19.20;60.30;;;;;;5008986;28;20527;-63